CYPY

Fort Chipewyan Airport

Fort Chipewyan, Alberta, Canada
METAR CYPY 201644Z AUTO 23008KT 190V260 9SM -RA SCT070 SCT085 BKN110 OVC140 04/M03 A2962 RMK SLP045
Observed Flight Rules
Oct-20 @ 16:44 UTC (26 minutes ago) Visual Flight Rules
Wind Visibility Clouds Conditions
230° at 8 knots 9 miles
  • Scattered at 7,000' AGL
  • Scattered at 8,500' AGL
  • Broken at 11,000' AGL
  • Overcast at 14,000' AGL
  • Light Rain
Temperatures Readings
Current 4°C / 39°F
Dewpoint -3°C / 27°F
Humidity 61%
Altimeter 29.62" Hg
Pressure 1004.5 hPa
Elevation 232
METAR CYPY 201644Z AUTO 23008KT 190V260 9SM -RA SCT070 SCT085 BKN110 OVC140 04/M03 A2962 RMK SLP045
Observed Flight Rules
Oct-20 @ 16:44 UTC
(26 minutes ago)
VFR
Wind Visibility
230° at 8 knots 9 miles
Clouds
  • Scattered at 7,000' AGL
  • Scattered at 8,500' AGL
  • Broken at 11,000' AGL
  • Overcast at 14,000' AGL
Conditions
  • Light Rain
Temperature Dewpoint
4°C / 39°F -3°C / 27°F
Humidity Altimeter Pressure
61% 29.62" Hg 1004.5 hPa